ケアンズ の空港の天気 - METARとTAF

ケアンズ国際空港 ( YBCS / CNS ) - オーストラリア クイーンズランド州ケアンズ
飛行場実況気象(Metar)
観測時間07/21 08:00 AEST (07/20 22:00 UTC)
風向・風速南東 5m/s
視程10km以上
天気現象
少しの雲 雲底高度 850m
気温20℃
湿度78%
気圧1017hPa
METARYBCS 202200Z 14009KT 9999 FEW028 20/16 Q1017 NOSIG
過去の天気等 Google飛行場航空写真 Wunderground天気予報

過去48時間のMETAR

飛行場予報(TAF)
発表時間: 7/21 03:08 AEST (7/20 17:08 UTC)
予報対象時間: 21日4時 AEST ~ 22日4時 AEST
風向・風速南東 7m/s
視程10km以上
少しの雲 雲底高度 910m
21日21時 AEST から
風向・風速南 4m/s
視程10km以上
全天の4割程度の雲 雲底高度 760m
TAF YBCS 201708Z 2018/2118 13014KT 9999 FEW030
FM211100 17007KT 9999 SCT025